Time;durP1;ratioP1;P1;durP2;ratioP2;P2;SDS_P1;SDS_P2;PMS_P1;PMS_P2;Temp;Humidity;BMP_temperature;BMP_pressure;BME280_temperature;BME280_humidity;BME280_pressure;Samples;Min_cycle;Max_cycle;Signal;HPM_P1;HPM_P2
2023/12/05 06:02:26;;;;;;;18.43;7.00;;;;;;;;;;5237077;23;20524;-76
2023/12/05 06:04:52;;;;;;;11.07;6.50;;;;;;;;;;4942996;29;20965;-75
2023/12/05 06:07:18;;;;;;;13.83;6.80;;;;;;;;;;4941288;29;20437;-77
2023/12/05 06:09:45;;;;;;;12.40;4.90;;;;;;;;;;4941512;29;20913;-76
2023/12/05 06:12:12;;;;;;;11.73;5.93;;;;;;;;;;4940043;29;20429;-76
2023/12/05 06:14:38;;;;;;;12.87;5.90;;;;;;;;;;4940845;29;20465;-76
2023/12/05 06:17:04;;;;;;;10.83;5.50;;;;;;;;;;4938226;29;20896;-76
2023/12/05 06:19:30;;;;;;;12.80;5.53;;;;;;;;;;4936907;29;20449;-77
2023/12/05 06:21:56;;;;;;;13.20;5.10;;;;;;;;;;4938423;29;20441;-76
2023/12/05 06:24:22;;;;;;;13.03;4.97;;;;;;;;;;4937450;29;20414;-76
2023/12/05 06:26:48;;;;;;;10.60;4.80;;;;;;;;;;4937190;29;20500;-76
2023/12/05 06:29:13;;;;;;;14.07;6.10;;;;;;;;;;4937025;29;20431;-76
2023/12/05 06:31:39;;;;;;;11.33;5.47;;;;;;;;;;4936855;29;20446;-75
2023/12/05 06:34:06;;;;;;;13.03;5.63;;;;;;;;;;4939225;29;20460;-76
2023/12/05 06:36:32;;;;;;;11.97;4.60;;;;;;;;;;4937356;29;20809;-77
2023/12/05 06:38:58;;;;;;;11.30;5.00;;;;;;;;;;4936736;29;20417;-77
2023/12/05 06:41:24;;;;;;;6.10;3.90;;;;;;;;;;4937324;29;20445;-76
2023/12/05 06:43:50;;;;;;;9.47;4.17;;;;;;;;;;4935872;29;20422;-77
2023/12/05 06:46:16;;;;;;;7.53;4.50;;;;;;;;;;4937026;29;20450;-77
2023/12/05 06:48:42;;;;;;;7.30;4.90;;;;;;;;;;4935431;29;20488;-77
2023/12/05 06:51:09;;;;;;;7.97;4.50;;;;;;;;;;4936544;29;20665;-78
2023/12/05 06:53:34;;;;;;;12.13;4.70;;;;;;;;;;4936492;29;20960;-76
2023/12/05 06:56:00;;;;;;;9.90;4.60;;;;;;;;;;4936909;29;20417;-77
2023/12/05 06:58:26;;;;;;;10.40;5.53;;;;;;;;;;4936362;29;20449;-76
2023/12/05 07:00:52;;;;;;;8.80;4.70;;;;;;;;;;4936134;29;20945;-76
2023/12/05 07:03:18;;;;;;;10.87;3.73;;;;;;;;;;4935881;29;20499;-77
2023/12/05 07:05:44;;;;;;;11.83;5.60;;;;;;;;;;4936076;29;20425;-78
2023/12/05 07:08:10;;;;;;;13.27;7.07;;;;;;;;;;4935604;29;20526;-76
2023/12/05 07:10:36;;;;;;;11.07;6.10;;;;;;;;;;4937673;29;20838;-72
2023/12/05 07:13:02;;;;;;;13.13;6.90;;;;;;;;;;4936284;29;20453;-71
2023/12/05 07:15:28;;;;;;;27.73;7.13;;;;;;;;;;4937689;29;20422;-77
2023/12/05 07:17:54;;;;;;;20.20;8.27;;;;;;;;;;4936677;29;20480;-75
2023/12/05 07:20:20;;;;;;;20.90;7.30;;;;;;;;;;4937325;29;20414;-72
2023/12/05 07:22:46;;;;;;;13.77;5.80;;;;;;;;;;4936480;29;20421;-72
2023/12/05 07:25:12;;;;;;;17.17;6.53;;;;;;;;;;4934110;29;20421;-74
2023/12/05 07:27:38;;;;;;;13.87;6.67;;;;;;;;;;4933885;29;20563;-73
2023/12/05 07:30:04;;;;;;;10.73;6.60;;;;;;;;;;4934791;29;20426;-73
2023/12/05 07:32:30;;;;;;;15.40;6.37;;;;;;;;;;4935238;29;20436;-74
2023/12/05 07:34:56;;;;;;;20.13;7.07;;;;;;;;;;4935081;29;20839;-75
2023/12/05 07:37:22;;;;;;;13.30;5.10;;;;;;;;;;4934072;29;20862;-74
2023/12/05 07:39:48;;;;;;;17.97;6.33;;;;;;;;;;4934579;29;20768;-74
2023/12/05 07:42:15;;;;;;;8.07;4.80;;;;;;;;;;4935329;29;20444;-74
2023/12/05 07:44:41;;;;;;;11.90;5.43;;;;;;;;;;4932074;29;20435;-74
2023/12/05 07:47:07;;;;;;;18.33;6.80;;;;;;;;;;4935259;29;20422;-74
2023/12/05 07:49:33;;;;;;;22.57;6.03;;;;;;;;;;4934961;29;20917;-74
2023/12/05 07:52:00;;;;;;;19.60;7.70;;;;;;;;;;4934617;29;20488;-73
2023/12/05 07:54:26;;;;;;;11.57;5.70;;;;;;;;;;4915980;29;20509;-72
2023/12/05 07:56:52;;;;;;;12.07;5.70;;;;;;;;;;4925701;29;20425;-71
2023/12/05 07:59:18;;;;;;;15.70;5.27;;;;;;;;;;4932857;29;20583;-71
2023/12/05 08:01:46;;;;;;;20.37;4.80;;;;;;;;;;4934728;29;20479;-72
2023/12/05 08:04:12;;;;;;;9.65;5.07;;;;;;;;;;4926962;29;20486;-74
2023/12/05 08:06:38;;;;;;;8.67;4.50;;;;;;;;;;4920007;29;20189;-75
2023/12/05 08:09:04;;;;;;;10.20;4.83;;;;;;;;;;4931268;29;20457;-75
2023/12/05 08:11:30;;;;;;;5.90;3.90;;;;;;;;;;4930603;29;20473;-75
2023/12/05 08:13:56;;;;;;;9.13;3.67;;;;;;;;;;4916703;29;20954;-75
2023/12/05 08:16:22;;;;;;;16.60;5.47;;;;;;;;;;4918287;29;20443;-75
2023/12/05 08:18:48;;;;;;;9.30;4.70;;;;;;;;;;4935159;29;20548;-76
2023/12/05 08:21:14;;;;;;;7.20;3.70;;;;;;;;;;4935171;29;20437;-75
2023/12/05 08:23:40;;;;;;;7.07;4.00;;;;;;;;;;4916326;29;20497;-75
2023/12/05 08:26:06;;;;;;;10.77;4.30;;;;;;;;;;4933440;29;20437;-76
2023/12/05 08:28:32;;;;;;;8.50;4.07;;;;;;;;;;4937441;29;20924;-76
2023/12/05 08:30:58;;;;;;;10.33;3.67;;;;;;;;;;4934287;29;20501;-76
2023/12/05 08:33:24;;;;;;;14.27;4.30;;;;;;;;;;4928827;29;20472;-76
2023/12/05 08:35:50;;;;;;;9.77;4.47;;;;;;;;;;4925265;29;20421;-76
2023/12/05 08:38:16;;;;;;;9.40;4.00;;;;;;;;;;4932331;29;20422;-75
2023/12/05 08:40:42;;;;;;;9.60;4.17;;;;;;;;;;4923873;29;20445;-76
2023/12/05 08:43:08;;;;;;;11.10;4.90;;;;;;;;;;4930461;29;20417;-79
2023/12/05 08:45:34;;;;;;;12.07;4.87;;;;;;;;;;4931174;29;20759;-76
2023/12/05 08:48:00;;;;;;;8.40;4.23;;;;;;;;;;4926704;29;20920;-75
2023/12/05 08:50:26;;;;;;;13.40;3.90;;;;;;;;;;4915830;29;20434;-76
2023/12/05 08:52:52;;;;;;;15.60;3.80;;;;;;;;;;4927674;29;20422;-76
2023/12/05 08:55:18;;;;;;;8.63;3.30;;;;;;;;;;4933996;29;20433;-75
2023/12/05 08:57:44;;;;;;;5.97;4.00;;;;;;;;;;4934084;29;20424;-76
2023/12/05 09:00:10;;;;;;;10.23;4.20;;;;;;;;;;4929357;29;20445;-75
2023/12/05 09:02:36;;;;;;;9.30;3.87;;;;;;;;;;4934106;29;20504;-75
2023/12/05 09:05:03;;;;;;;8.53;3.50;;;;;;;;;;4936228;29;20426;-75
2023/12/05 09:07:29;;;;;;;6.43;3.60;;;;;;;;;;4935315;29;20433;-74
2023/12/05 09:09:55;;;;;;;7.70;3.83;;;;;;;;;;4937024;29;20418;-74
2023/12/05 09:12:21;;;;;;;9.93;3.80;;;;;;;;;;4953875;29;20426;-74
2023/12/05 09:14:47;;;;;;;6.20;3.50;;;;;;;;;;4944233;28;20492;-75
2023/12/05 09:17:13;;;;;;;4.13;2.57;;;;;;;;;;4938437;29;20417;-75
2023/12/05 09:19:38;;;;;;;6.23;3.17;;;;;;;;;;4919330;29;20415;-75
2023/12/05 09:22:04;;;;;;;4.70;1.97;;;;;;;;;;4926614;29;20532;-74
2023/12/05 09:24:30;;;;;;;5.13;2.13;;;;;;;;;;4938185;29;20774;-75
2023/12/05 09:26:56;;;;;;;4.33;2.37;;;;;;;;;;4938075;29;20883;-74
2023/12/05 09:29:22;;;;;;;9.30;4.60;;;;;;;;;;4934661;29;20468;-73
2023/12/05 09:31:48;;;;;;;7.03;2.70;;;;;;;;;;4937107;29;20477;-73
2023/12/05 09:34:14;;;;;;;7.20;3.20;;;;;;;;;;4937214;29;20496;-73
2023/12/05 09:36:40;;;;;;;5.90;2.00;;;;;;;;;;4938974;29;20493;-72
2023/12/05 09:39:06;;;;;;;14.33;4.40;;;;;;;;;;4936040;29;20460;-73
2023/12/05 09:41:39;;;;;;;8.17;3.60;;;;;;;;;;4936354;29;20440;-74
2023/12/05 09:44:05;;;;;;;4.20;2.00;;;;;;;;;;4937132;29;20844;-73
2023/12/05 09:46:36;;;;;;;8.37;4.00;;;;;;;;;;4936320;29;20418;-75
2023/12/05 09:49:05;;;;;;;11.60;3.57;;;;;;;;;;4936356;29;20425;-75
2023/12/05 09:51:32;;;;;;;8.53;2.03;;;;;;;;;;4937792;29;20433;-75
2023/12/05 09:53:59;;;;;;;2.80;2.03;;;;;;;;;;4937126;29;20582;-75
2023/12/05 09:56:25;;;;;;;3.80;3.50;;;;;;;;;;4937308;29;20476;-74
2023/12/05 09:58:51;;;;;;;6.03;2.37;;;;;;;;;;4936112;29;20434;-74
2023/12/05 10:01:19;;;;;;;6.67;2.50;;;;;;;;;;4934365;29;20475;-75
2023/12/05 10:03:47;;;;;;;3.10;2.03;;;;;;;;;;4936935;29;20468;-75
2023/12/05 10:06:16;;;;;;;6.40;2.23;;;;;;;;;;4935755;29;20512;-75
2023/12/05 10:08:42;;;;;;;2.43;1.90;;;;;;;;;;4954081;29;20473;-73
2023/12/05 10:11:09;;;;;;;4.73;1.80;;;;;;;;;;4955767;29;20456;-74
2023/12/05 10:13:35;;;;;;;4.30;2.63;;;;;;;;;;4946049;29;20457;-74
2023/12/05 10:16:01;;;;;;;2.50;1.67;;;;;;;;;;4934828;29;20572;-73
2023/12/05 10:18:28;;;;;;;4.13;2.00;;;;;;;;;;4934336;29;20418;-75
2023/12/05 10:20:54;;;;;;;5.03;2.40;;;;;;;;;;4936560;29;20445;-74
2023/12/05 10:23:20;;;;;;;2.67;1.80;;;;;;;;;;4936783;29;20816;-76
2023/12/05 10:25:46;;;;;;;5.70;1.80;;;;;;;;;;4936743;29;20461;-75
2023/12/05 10:28:13;;;;;;;2.77;1.50;;;;;;;;;;4935855;29;20492;-75
2023/12/05 10:30:39;;;;;;;3.27;1.53;;;;;;;;;;4921185;29;20494;-75
2023/12/05 10:33:13;;;;;;;5.30;2.30;;;;;;;;;;4948548;29;20508;-75
2023/12/05 10:35:39;;;;;;;1.63;1.53;;;;;;;;;;4939269;29;20785;-75
2023/12/05 10:38:09;;;;;;;13.90;2.37;;;;;;;;;;4935518;29;20413;-75
2023/12/05 10:40:51;;;;;;;2.93;1.90;;;;;;;;;;4938670;29;20437;-75
2023/12/05 10:43:17;;;;;;;6.47;1.87;;;;;;;;;;4936956;29;20449;-75
2023/12/05 10:45:44;;;;;;;4.10;1.73;;;;;;;;;;4935834;29;20888;-75
2023/12/05 10:48:14;;;;;;;3.90;2.00;;;;;;;;;;4935893;29;20522;-76
2023/12/05 10:50:40;;;;;;;4.20;2.00;;;;;;;;;;4935376;29;20512;-74
2023/12/05 10:53:06;;;;;;;3.53;2.00;;;;;;;;;;4937992;29;20493;-75
2023/12/05 10:55:32;;;;;;;2.77;1.57;;;;;;;;;;4950618;29;20428;-75
2023/12/05 10:57:59;;;;;;;1.80;1.67;;;;;;;;;;4936726;29;20614;-75
2023/12/05 11:00:25;;;;;;;1.60;1.50;;;;;;;;;;4936514;29;20426;-76
2023/12/05 11:02:53;;;;;;;4.47;1.97;;;;;;;;;;4942103;29;20938;-76
2023/12/05 11:05:19;;;;;;;2.53;1.83;;;;;;;;;;4935464;29;20445;-75
2023/12/05 11:07:45;;;;;;;2.20;1.70;;;;;;;;;;4930535;29;20441;-75
2023/12/05 11:10:11;;;;;;;5.10;2.70;;;;;;;;;;4934833;29;20940;-75
2023/12/05 11:12:38;;;;;;;4.37;1.97;;;;;;;;;;4933563;29;20512;-75
2023/12/05 11:15:04;;;;;;;3.83;1.70;;;;;;;;;;4936028;29;20465;-74
2023/12/05 11:17:38;;;;;;;1.63;1.50;;;;;;;;;;4935386;29;20422;-75
2023/12/05 11:20:04;;;;;;;4.30;2.23;;;;;;;;;;4935801;29;20755;-75
2023/12/05 11:22:39;;;;;;;4.93;2.00;;;;;;;;;;4942742;29;20441;-75
2023/12/05 11:25:08;;;;;;;3.17;1.90;;;;;;;;;;4942752;29;20429;-75
2023/12/05 11:27:49;;;;;;;4.07;2.10;;;;;;;;;;4939649;29;20436;-75
2023/12/05 11:30:51;;;;;;;7.53;2.70;;;;;;;;;;4955124;29;20426;-75
2023/12/05 11:33:31;;;;;;;4.50;2.23;;;;;;;;;;4935152;29;20601;-73
2023/12/05 11:36:05;;;;;;;4.23;2.37;;;;;;;;;;4916933;29;20800;-72
2023/12/05 11:38:32;;;;;;;2.37;1.70;;;;;;;;;;4929415;29;20429;-72
2023/12/05 11:41:14;;;;;;;2.77;2.00;;;;;;;;;;4935121;29;20429;-72
2023/12/05 11:43:42;;;;;;;7.20;2.60;;;;;;;;;;4935323;29;20412;-72
2023/12/05 11:46:09;;;;;;;2.80;2.30;;;;;;;;;;4933861;29;20812;-72
2023/12/05 11:48:35;;;;;;;1.63;1.63;;;;;;;;;;4932348;29;20936;-75
2023/12/05 11:51:02;;;;;;;2.70;1.63;;;;;;;;;;4933258;29;20453;-74
2023/12/05 11:53:28;;;;;;;2.47;1.33;;;;;;;;;;4934223;29;20579;-72
2023/12/05 11:55:54;;;;;;;2.37;1.53;;;;;;;;;;4934971;29;20433;-73
2023/12/05 11:58:33;;;;;;;2.40;1.70;;;;;;;;;;4934900;29;20483;-74
2023/12/05 12:01:05;;;;;;;1.60;1.50;;;;;;;;;;4934510;29;20457;-74
2023/12/05 12:03:44;;;;;;;3.27;1.80;;;;;;;;;;4934232;29;20520;-74
2023/12/05 12:06:10;;;;;;;1.80;1.70;;;;;;;;;;4927126;29;20433;-75
2023/12/05 12:08:36;;;;;;;2.70;1.93;;;;;;;;;;4933481;29;20437;-75
2023/12/05 12:11:04;;;;;;;6.10;2.57;;;;;;;;;;4935073;29;20445;-75
2023/12/05 12:13:30;;;;;;;2.50;1.57;;;;;;;;;;4934874;29;20621;-75
2023/12/05 12:15:57;;;;;;;1.90;1.33;;;;;;;;;;4934911;29;20454;-77
2023/12/05 12:18:27;;;;;;;5.73;1.80;;;;;;;;;;4932673;29;20430;-76
2023/12/05 12:20:53;;;;;;;4.57;2.33;;;;;;;;;;4932891;29;20437;-74
2023/12/05 12:23:22;;;;;;;2.80;1.73;;;;;;;;;;4934081;29;20526;-72
2023/12/05 12:25:50;;;;;;;3.60;1.63;;;;;;;;;;4934158;29;20460;-70
2023/12/05 12:28:28;;;;;;;3.40;2.03;;;;;;;;;;4932077;29;20759;-71
2023/12/05 12:30:54;;;;;;;3.83;1.83;;;;;;;;;;4933245;29;20441;-72
2023/12/05 12:33:22;;;;;;;3.13;2.07;;;;;;;;;;4932783;29;20476;-72
2023/12/05 12:35:49;;;;;;;1.57;1.53;;;;;;;;;;4934403;29;20498;-73
2023/12/05 12:38:15;;;;;;;2.50;1.83;;;;;;;;;;4929482;29;20465;-73
2023/12/05 12:40:41;;;;;;;2.80;1.47;;;;;;;;;;4933405;29;20445;-74
2023/12/05 12:43:08;;;;;;;8.97;3.70;;;;;;;;;;4934224;29;20425;-73
2023/12/05 12:45:34;;;;;;;4.60;2.33;;;;;;;;;;4934916;29;20428;-74
2023/12/05 12:48:03;;;;;;;2.97;1.73;;;;;;;;;;4934798;29;20460;-74
2023/12/05 12:50:29;;;;;;;4.97;2.10;;;;;;;;;;4936792;29;20933;-74
2023/12/05 12:52:56;;;;;;;8.33;1.90;;;;;;;;;;4938693;29;20500;-75
2023/12/05 12:55:23;;;;;;;4.70;2.60;;;;;;;;;;4936534;29;20968;-74
2023/12/05 12:57:53;;;;;;;5.03;1.70;;;;;;;;;;4938269;29;20496;-74
2023/12/05 13:00:20;;;;;;;7.00;2.10;;;;;;;;;;4937644;29;20521;-75
2023/12/05 13:02:46;;;;;;;7.63;2.00;;;;;;;;;;4937398;29;20436;-74
2023/12/05 13:05:12;;;;;;;9.13;2.27;;;;;;;;;;4937540;29;20414;-74
2023/12/05 13:07:38;;;;;;;3.10;1.87;;;;;;;;;;4933170;29;20419;-74
2023/12/05 13:10:05;;;;;;;6.20;2.47;;;;;;;;;;4931700;29;20422;-73
2023/12/05 13:12:31;;;;;;;3.77;1.80;;;;;;;;;;4936899;29;20437;-77
2023/12/05 13:14:57;;;;;;;3.20;2.00;;;;;;;;;;4937770;29;20465;-77
2023/12/05 13:17:23;;;;;;;4.20;1.80;;;;;;;;;;4937971;29;20781;-77
2023/12/05 13:19:50;;;;;;;6.93;2.03;;;;;;;;;;4929410;29;20401;-75
2023/12/05 13:22:15;;;;;;;7.47;1.80;;;;;;;;;;4937886;29;20430;-75
2023/12/05 13:24:42;;;;;;;6.17;1.90;;;;;;;;;;4937797;29;20964;-76
2023/12/05 13:27:08;;;;;;;6.23;2.37;;;;;;;;;;4929615;29;20437;-76
2023/12/05 13:29:34;;;;;;;12.13;2.10;;;;;;;;;;4937339;29;20418;-77
2023/12/05 13:32:00;;;;;;;7.37;2.67;;;;;;;;;;4936260;29;20944;-76
2023/12/05 13:34:25;;;;;;;6.70;1.60;;;;;;;;;;4927318;29;20505;-77
2023/12/05 13:36:52;;;;;;;9.07;2.17;;;;;;;;;;4926137;29;20417;-76
2023/12/05 13:39:18;;;;;;;2.27;1.73;;;;;;;;;;4937180;29;20413;-76
2023/12/05 13:41:44;;;;;;;2.80;1.70;;;;;;;;;;4937008;29;20442;-77
2023/12/05 13:44:10;;;;;;;3.30;1.90;;;;;;;;;;4937215;29;20421;-76
2023/12/05 13:46:36;;;;;;;2.10;1.53;;;;;;;;;;4937252;29;20414;-77
2023/12/05 13:49:04;;;;;;;4.73;1.90;;;;;;;;;;4931356;29;20909;-75
2023/12/05 13:51:36;;;;;;;4.10;1.70;;;;;;;;;;4919967;29;20445;-76
2023/12/05 13:54:02;;;;;;;7.00;1.83;;;;;;;;;;4937245;29;20932;-76
2023/12/05 13:56:29;;;;;;;4.40;2.67;;;;;;;;;;4937005;29;20590;-75
2023/12/05 13:58:56;;;;;;;5.20;2.40;;;;;;;;;;4936721;29;20433;-75
2023/12/05 14:01:22;;;;;;;6.87;3.37;;;;;;;;;;4935130;29;20468;-77
2023/12/05 14:03:48;;;;;;;3.97;2.23;;;;;;;;;;4937973;29;20799;-76
2023/12/05 14:06:14;;;;;;;5.63;2.50;;;;;;;;;;4928645;29;20426;-77
2023/12/05 14:08:40;;;;;;;7.13;2.20;;;;;;;;;;4925708;29;20449;-76
2023/12/05 14:11:06;;;;;;;5.00;2.30;;;;;;;;;;4937826;29;20968;-76
2023/12/05 14:13:33;;;;;;;5.00;2.50;;;;;;;;;;4939360;29;20481;-77
2023/12/05 14:15:59;;;;;;;6.93;1.80;;;;;;;;;;4938551;29;20421;-76
2023/12/05 14:18:25;;;;;;;2.00;1.80;;;;;;;;;;4935426;29;20500;-77
2023/12/05 14:20:51;;;;;;;2.93;1.90;;;;;;;;;;4918446;29;20435;-77
2023/12/05 14:23:18;;;;;;;2.50;2.13;;;;;;;;;;4921596;29;20492;-77
2023/12/05 14:25:44;;;;;;;2.80;1.73;;;;;;;;;;4936130;29;20432;-76
2023/12/05 14:28:10;;;;;;;4.40;2.13;;;;;;;;;;4935531;29;20453;-76
2023/12/05 14:30:36;;;;;;;6.70;2.00;;;;;;;;;;4948113;29;20469;-77
2023/12/05 14:33:02;;;;;;;3.33;1.70;;;;;;;;;;4951203;29;20430;-74
2023/12/05 14:35:28;;;;;;;9.73;1.97;;;;;;;;;;4936432;29;20525;-74
2023/12/05 14:37:54;;;;;;;4.13;1.70;;;;;;;;;;4931498;29;20781;-73
2023/12/05 14:40:20;;;;;;;3.17;1.90;;;;;;;;;;4930266;29;20458;-73
2023/12/05 14:42:46;;;;;;;2.60;1.87;;;;;;;;;;4919701;29;20426;-73
2023/12/05 14:45:12;;;;;;;5.10;2.30;;;;;;;;;;4916966;29;20418;-73
2023/12/05 14:47:38;;;;;;;2.67;1.80;;;;;;;;;;4920676;29;20992;-73
2023/12/05 14:50:04;;;;;;;7.43;2.13;;;;;;;;;;4935506;29;20440;-73
2023/12/05 14:52:30;;;;;;;5.50;2.63;;;;;;;;;;4935382;29;20441;-73
2023/12/05 14:54:56;;;;;;;11.27;2.50;;;;;;;;;;4935496;29;20465;-74
2023/12/05 14:57:22;;;;;;;3.10;2.43;;;;;;;;;;4935576;29;20489;-73
2023/12/05 14:59:49;;;;;;;5.37;1.83;;;;;;;;;;4919749;29;20541;-73
2023/12/05 15:02:15;;;;;;;2.70;1.70;;;;;;;;;;4916405;29;20454;-74
2023/12/05 15:04:41;;;;;;;6.50;2.37;;;;;;;;;;4933288;29;20449;-74
2023/12/05 15:07:07;;;;;;;3.80;1.80;;;;;;;;;;4934546;29;20523;-75
2023/12/05 15:09:34;;;;;;;4.43;2.43;;;;;;;;;;4934619;29;20456;-75
2023/12/05 15:12:02;;;;;;;6.57;2.33;;;;;;;;;;4934481;29;20441;-74
2023/12/05 15:14:28;;;;;;;14.53;2.20;;;;;;;;;;4934289;29;20473;-74
2023/12/05 15:16:54;;;;;;;6.33;2.03;;;;;;;;;;4934828;29;20417;-74
2023/12/05 15:19:20;;;;;;;9.33;2.60;;;;;;;;;;4934915;29;20480;-73
2023/12/05 15:21:46;;;;;;;8.97;2.10;;;;;;;;;;4935799;29;20846;-74
2023/12/05 15:24:12;;;;;;;5.10;2.47;;;;;;;;;;4935366;29;20819;-73
2023/12/05 15:26:38;;;;;;;7.13;2.50;;;;;;;;;;4935788;29;20509;-74
2023/12/05 15:29:04;;;;;;;5.63;2.17;;;;;;;;;;4935481;29;20433;-74
2023/12/05 15:31:30;;;;;;;8.50;2.57;;;;;;;;;;4931883;29;20446;-73
2023/12/05 15:33:56;;;;;;;5.03;2.27;;;;;;;;;;4933045;29;20470;-72
2023/12/05 15:36:22;;;;;;;7.60;1.80;;;;;;;;;;4938501;29;20421;-73
2023/12/05 15:38:48;;;;;;;9.13;2.60;;;;;;;;;;4937127;29;20702;-74
2023/12/05 15:41:14;;;;;;;4.20;1.90;;;;;;;;;;4934553;29;20501;-74
2023/12/05 15:43:40;;;;;;;13.40;2.70;;;;;;;;;;4934908;29;20429;-74
2023/12/05 15:46:06;;;;;;;12.23;2.40;;;;;;;;;;4934784;29;20449;-74
2023/12/05 15:48:32;;;;;;;6.33;2.10;;;;;;;;;;4933998;29;20468;-74
2023/12/05 15:50:59;;;;;;;4.50;2.50;;;;;;;;;;4935583;29;20458;-73
2023/12/05 15:53:25;;;;;;;13.23;3.43;;;;;;;;;;4936905;29;21029;-74
2023/12/05 15:55:50;;;;;;;5.20;2.47;;;;;;;;;;4934486;29;20489;-73
2023/12/05 15:58:16;;;;;;;4.37;2.80;;;;;;;;;;4934084;29;20414;-75
2023/12/05 16:00:43;;;;;;;3.37;2.17;;;;;;;;;;4933737;28;20492;-75
2023/12/05 16:03:09;;;;;;;6.63;2.40;;;;;;;;;;4927024;29;20421;-74
2023/12/05 16:05:35;;;;;;;5.70;2.40;;;;;;;;;;4934588;29;20440;-75
2023/12/05 16:08:01;;;;;;;4.33;2.00;;;;;;;;;;4934107;29;20922;-75
2023/12/05 16:10:27;;;;;;;4.03;1.90;;;;;;;;;;4934567;29;20782;-75
2023/12/05 16:12:53;;;;;;;2.90;1.77;;;;;;;;;;4934708;29;20417;-74
2023/12/05 16:15:19;;;;;;;3.77;1.50;;;;;;;;;;4937147;29;20485;-75
2023/12/05 16:17:46;;;;;;;19.33;4.20;;;;;;;;;;4935323;29;20496;-75
2023/12/05 16:20:12;;;;;;;6.10;2.60;;;;;;;;;;4932933;29;20426;-76
2023/12/05 16:22:38;;;;;;;4.90;2.03;;;;;;;;;;4933991;29;20421;-74
2023/12/05 16:25:04;;;;;;;5.03;2.43;;;;;;;;;;4933535;29;20985;-74
2023/12/05 16:27:30;;;;;;;6.67;2.90;;;;;;;;;;4933539;29;20426;-74
2023/12/05 16:29:56;;;;;;;4.00;2.10;;;;;;;;;;4934725;29;20436;-73
2023/12/05 16:32:22;;;;;;;5.00;2.80;;;;;;;;;;4935283;29;20441;-72
2023/12/05 16:34:50;;;;;;;8.00;2.50;;;;;;;;;;4932583;29;20600;-73
2023/12/05 16:37:16;;;;;;;3.80;2.30;;;;;;;;;;4934161;29;20493;-72
2023/12/05 16:39:43;;;;;;;8.50;2.47;;;;;;;;;;4933044;29;20505;-74
2023/12/05 16:42:09;;;;;;;5.83;2.80;;;;;;;;;;4925373;29;20449;-72
2023/12/05 16:44:35;;;;;;;3.03;2.20;;;;;;;;;;4932175;29;20429;-72
2023/12/05 16:47:01;;;;;;;8.10;3.33;;;;;;;;;;4932247;29;20432;-72
2023/12/05 16:49:27;;;;;;;4.80;2.83;;;;;;;;;;4934875;29;20413;-72
2023/12/05 16:51:53;;;;;;;6.20;3.07;;;;;;;;;;4934505;29;20460;-73
2023/12/05 16:54:19;;;;;;;6.73;2.80;;;;;;;;;;4934511;29;20465;-72
2023/12/05 16:56:45;;;;;;;8.37;3.17;;;;;;;;;;4933123;29;20773;-72
2023/12/05 16:59:11;;;;;;;10.20;3.50;;;;;;;;;;4934041;29;20424;-72
2023/12/05 17:01:37;;;;;;;10.60;3.50;;;;;;;;;;4933838;29;20849;-72
2023/12/05 17:04:03;;;;;;;5.57;2.90;;;;;;;;;;4933376;29;20426;-73
2023/12/05 17:06:29;;;;;;;7.30;3.53;;;;;;;;;;4933211;29;20428;-73
2023/12/05 17:08:56;;;;;;;10.10;4.50;;;;;;;;;;4933353;29;20425;-72
2023/12/05 17:11:22;;;;;;;13.07;5.00;;;;;;;;;;4933420;29;20433;-72
2023/12/05 17:13:48;;;;;;;7.37;3.57;;;;;;;;;;4931884;29;20469;-72
2023/12/05 17:16:14;;;;;;;7.00;2.60;;;;;;;;;;4933187;29;20981;-73
2023/12/05 17:18:41;;;;;;;5.40;2.23;;;;;;;;;;4932894;29;20905;-72
2023/12/05 17:21:07;;;;;;;12.37;3.10;;;;;;;;;;4932898;29;20445;-72
2023/12/05 17:23:36;;;;;;;3.53;2.57;;;;;;;;;;4933043;29;20805;-73
2023/12/05 17:26:02;;;;;;;11.30;2.70;;;;;;;;;;4933005;29;20428;-73
2023/12/05 17:28:28;;;;;;;4.70;1.80;;;;;;;;;;4932800;29;20515;-73
2023/12/05 17:30:54;;;;;;;2.70;1.80;;;;;;;;;;4935071;29;20532;-72
2023/12/05 17:33:20;;;;;;;3.80;2.40;;;;;;;;;;4933401;29;20564;-73
2023/12/05 17:35:46;;;;;;;7.90;2.40;;;;;;;;;;4933246;29;20413;-73
2023/12/05 17:38:14;;;;;;;4.07;2.73;;;;;;;;;;4935942;29;20410;-73
2023/12/05 17:40:40;;;;;;;5.80;2.80;;;;;;;;;;4936058;29;20479;-73
2023/12/05 17:43:06;;;;;;;4.30;2.07;;;;;;;;;;4936095;29;20410;-73
2023/12/05 17:45:32;;;;;;;7.63;3.23;;;;;;;;;;4934767;29;20940;-72
2023/12/05 17:47:58;;;;;;;6.43;3.30;;;;;;;;;;4935342;29;20943;-72
2023/12/05 17:50:25;;;;;;;2.93;2.17;;;;;;;;;;4935917;29;20830;-73
2023/12/05 17:52:52;;;;;;;3.50;1.70;;;;;;;;;;4936008;29;20410;-72
2023/12/05 17:55:18;;;;;;;2.60;2.00;;;;;;;;;;4935955;29;20476;-72
2023/12/05 17:57:44;;;;;;;2.20;2.00;;;;;;;;;;4935517;29;20409;-72
2023/12/05 18:00:10;;;;;;;5.80;2.90;;;;;;;;;;4935177;29;20481;-73
2023/12/05 18:02:36;;;;;;;3.45;2.22;;;;;;;;;;4900151;29;1044381;-72
2023/12/05 18:05:03;;;;;;;5.60;1.90;;;;;;;;;;4936982;29;20213;-72
2023/12/05 18:07:29;;;;;;;3.33;2.20;;;;;;;;;;4936602;29;20766;-72
2023/12/05 18:09:54;;;;;;;5.60;2.53;;;;;;;;;;4936142;29;20425;-72
2023/12/05 18:12:23;;;;;;;7.23;2.97;;;;;;;;;;4936585;29;20945;-73
2023/12/05 18:14:49;;;;;;;5.57;2.37;;;;;;;;;;4958961;23;20512;-75
2023/12/05 18:17:15;;;;;;;2.80;1.93;;;;;;;;;;4937220;29;20405;-75
2023/12/05 18:19:43;;;;;;;6.90;3.53;;;;;;;;;;4936359;29;20405;-75
2023/12/05 18:22:12;;;;;;;4.77;2.50;;;;;;;;;;4936775;29;20402;-75
2023/12/05 18:24:40;;;;;;;5.67;2.53;;;;;;;;;;4933674;29;20458;-74
2023/12/05 18:27:11;;;;;;;9.60;3.33;;;;;;;;;;4917956;29;20410;-74
2023/12/05 18:29:37;;;;;;;5.97;2.83;;;;;;;;;;4917737;29;20917;-75
2023/12/05 18:32:03;;;;;;;5.90;3.03;;;;;;;;;;4916113;29;20523;-75
2023/12/05 18:34:29;;;;;;;4.90;2.90;;;;;;;;;;4915578;29;20478;-75
2023/12/05 18:36:56;;;;;;;4.80;2.60;;;;;;;;;;4915079;29;20956;-77
2023/12/05 18:39:22;;;;;;;4.83;2.77;;;;;;;;;;4915514;29;20527;-75
2023/12/05 18:41:48;;;;;;;2.60;2.17;;;;;;;;;;4899185;29;20423;-75
2023/12/05 18:44:15;;;;;;;3.93;2.63;;;;;;;;;;4897928;29;20415;-73
2023/12/05 18:46:41;;;;;;;5.80;1.80;;;;;;;;;;4896833;29;20474;-75
2023/12/05 18:49:07;;;;;;;2.20;2.00;;;;;;;;;;4897471;29;20452;-74
2023/12/05 18:51:33;;;;;;;5.37;2.73;;;;;;;;;;4897321;29;20470;-74
2023/12/05 18:53:59;;;;;;;6.73;3.47;;;;;;;;;;4898348;29;20473;-74
2023/12/05 18:56:25;;;;;;;5.63;3.00;;;;;;;;;;4910691;29;20446;-75
2023/12/05 18:58:51;;;;;;;5.60;2.43;;;;;;;;;;4917071;29;20407;-75
2023/12/05 19:01:17;;;;;;;2.80;2.27;;;;;;;;;;4916989;29;20851;-77
2023/12/05 19:03:44;;;;;;;2.20;2.00;;;;;;;;;;4912299;29;21005;-77
2023/12/05 19:06:11;;;;;;;3.20;2.00;;;;;;;;;;4914856;29;20474;-77
2023/12/05 19:08:37;;;;;;;10.50;2.37;;;;;;;;;;4922530;29;20513;-75
2023/12/05 19:11:06;;;;;;;3.20;2.40;;;;;;;;;;4916981;29;20465;-75
2023/12/05 19:13:33;;;;;;;4.70;2.13;;;;;;;;;;4916679;29;20470;-76
2023/12/05 19:15:59;;;;;;;6.83;2.27;;;;;;;;;;4915419;29;20482;-75
2023/12/05 19:18:25;;;;;;;2.83;2.00;;;;;;;;;;4916047;29;20446;-76
2023/12/05 19:20:52;;;;;;;9.27;3.57;;;;;;;;;;4916872;29;20410;-76
2023/12/05 19:23:18;;;;;;;3.40;2.03;;;;;;;;;;4916598;29;20825;-76
2023/12/05 19:25:44;;;;;;;3.63;2.20;;;;;;;;;;4910714;29;20526;-76
2023/12/05 19:28:10;;;;;;;7.53;2.20;;;;;;;;;;4914490;29;20578;-76
2023/12/05 19:30:36;;;;;;;3.03;1.80;;;;;;;;;;4915421;29;20422;-76
2023/12/05 19:33:02;;;;;;;4.90;2.47;;;;;;;;;;4898582;29;20428;-76
2023/12/05 19:35:28;;;;;;;3.93;2.47;;;;;;;;;;4897850;29;20543;-76
2023/12/05 19:37:55;;;;;;;3.93;2.43;;;;;;;;;;4898071;29;20420;-76
2023/12/05 19:40:21;;;;;;;3.40;2.10;;;;;;;;;;4897633;29;20471;-76
2023/12/05 19:42:47;;;;;;;7.93;2.53;;;;;;;;;;4898030;29;20548;-76
2023/12/05 19:45:13;;;;;;;3.80;2.70;;;;;;;;;;4898174;29;20440;-76
2023/12/05 19:47:39;;;;;;;5.33;2.20;;;;;;;;;;4896824;29;20427;-76
2023/12/05 19:50:06;;;;;;;3.20;2.10;;;;;;;;;;4896201;29;20482;-76
2023/12/05 19:52:32;;;;;;;4.10;2.73;;;;;;;;;;4897289;29;20483;-76
2023/12/05 19:54:58;;;;;;;5.00;2.33;;;;;;;;;;4896507;29;20478;-76
2023/12/05 19:57:24;;;;;;;2.53;1.73;;;;;;;;;;4897931;29;20411;-76
2023/12/05 19:59:50;;;;;;;2.13;1.97;;;;;;;;;;4896970;29;20497;-76
2023/12/05 20:02:16;;;;;;;3.43;1.93;;;;;;;;;;4908808;29;20473;-76
2023/12/05 20:04:42;;;;;;;3.53;2.10;;;;;;;;;;4917890;29;20437;-76
2023/12/05 20:07:08;;;;;;;2.73;2.20;;;;;;;;;;4918269;29;20438;-76
2023/12/05 20:09:34;;;;;;;5.77;2.13;;;;;;;;;;4917383;29;20434;-76
2023/12/05 20:12:00;;;;;;;3.37;1.70;;;;;;;;;;4912317;29;20423;-76
2023/12/05 20:14:26;;;;;;;2.73;1.80;;;;;;;;;;4896830;29;21053;-76
2023/12/05 20:16:52;;;;;;;2.40;1.97;;;;;;;;;;4897051;29;20453;-76
2023/12/05 20:19:19;;;;;;;3.43;1.97;;;;;;;;;;4896839;29;20411;-76
2023/12/05 20:21:45;;;;;;;6.40;1.90;;;;;;;;;;4902662;29;20413;-76
2023/12/05 20:24:12;;;;;;;3.27;1.83;;;;;;;;;;4915982;29;20421;-76
2023/12/05 20:26:38;;;;;;;2.90;2.10;;;;;;;;;;4916201;29;20438;-77
2023/12/05 20:29:04;;;;;;;3.20;2.33;;;;;;;;;;4915860;29;20446;-77
2023/12/05 20:31:30;;;;;;;2.60;1.80;;;;;;;;;;4915791;29;20425;-76
2023/12/05 20:33:57;;;;;;;1.83;1.60;;;;;;;;;;4915763;29;20466;-76
2023/12/05 20:36:23;;;;;;;3.37;1.70;;;;;;;;;;4915775;29;20438;-76
2023/12/05 20:38:49;;;;;;;1.83;1.73;;;;;;;;;;4916004;29;20407;-76